createdAt,value
2019-01-02T00:01:07.100Z,22.66
2019-01-02T00:03:37.316Z,22.67
2019-01-02T00:06:08.447Z,22.64
2019-01-02T00:08:38.753Z,22.62
2019-01-02T00:11:09.087Z,22.65
2019-01-02T00:13:39.591Z,22.63
2019-01-02T00:16:09.847Z,22.64
2019-01-02T00:18:40.449Z,22.62
2019-01-02T00:21:10.700Z,22.61
2019-01-02T00:23:40.949Z,22.59
2019-01-02T00:26:11.160Z,22.57
2019-01-02T00:28:41.403Z,22.59
2019-01-02T00:31:11.902Z,22.58
2019-01-02T00:33:42.166Z,22.59
2019-01-02T00:36:12.657Z,22.56
2019-01-02T00:38:42.975Z,22.55
2019-01-02T00:41:13.473Z,22.54
2019-01-02T00:43:43.712Z,22.51
2019-01-02T00:46:14.438Z,22.51
2019-01-02T00:48:44.674Z,22.49
2019-01-02T00:51:14.938Z,22.50
2019-01-02T00:53:45.168Z,22.48
2019-01-02T00:56:15.796Z,22.50
2019-01-02T00:58:46.024Z,22.47
2019-01-02T01:01:16.280Z,22.44
2019-01-02T01:03:46.511Z,22.43
2019-01-02T01:06:16.833Z,22.38
2019-01-02T01:08:47.085Z,22.38
2019-01-02T01:11:17.308Z,22.39
2019-01-02T01:13:47.555Z,22.37
2019-01-02T01:16:17.776Z,22.40
2019-01-02T01:18:48.019Z,22.41
2019-01-02T01:21:18.242Z,22.40
2019-01-02T01:23:48.967Z,22.41
2019-01-02T01:26:19.197Z,22.41
2019-01-02T01:28:49.816Z,22.41
2019-01-02T01:31:20.034Z,22.37
2019-01-02T01:33:50.287Z,22.36
2019-01-02T01:36:20.934Z,22.36
2019-01-02T01:38:51.161Z,22.33
2019-01-02T01:41:21.415Z,22.34
2019-01-02T01:43:52.021Z,22.31
2019-01-02T01:46:22.271Z,22.32
2019-01-02T01:48:52.870Z,22.32
2019-01-02T01:51:23.186Z,22.31
2019-01-02T01:53:53.417Z,22.29
2019-01-02T01:56:24.336Z,22.31
2019-01-02T01:58:54.579Z,22.31
2019-01-02T02:01:24.860Z,22.31
2019-01-02T02:03:55.287Z,22.29
2019-01-02T02:06:25.516Z,22.30
2019-01-02T02:08:55.753Z,22.29
2019-01-02T02:11:26.012Z,22.26
2019-01-02T02:13:56.237Z,22.26
2019-01-02T02:16:26.866Z,22.28
2019-01-02T02:18:57.096Z,22.28
2019-01-02T02:21:27.347Z,22.27
2019-01-02T02:23:58.013Z,22.28
2019-01-02T02:26:28.236Z,22.26
2019-01-02T02:28:58.478Z,22.28
2019-01-02T02:31:28.700Z,22.24
2019-01-02T02:33:59.224Z,22.23
2019-01-02T02:36:29.811Z,22.23
2019-01-02T02:39:00.436Z,22.22
2019-01-02T02:41:32.607Z,22.20
2019-01-02T02:44:03.631Z,22.18
2019-01-02T02:46:34.334Z,22.22
2019-01-02T02:49:04.607Z,22.22
2019-01-02T02:51:35.101Z,22.21
2019-01-02T02:54:05.723Z,22.21
2019-01-02T02:56:36.324Z,22.18
2019-01-02T02:59:07.078Z,22.21
2019-01-02T03:01:37.682Z,22.18
2019-01-02T03:04:08.419Z,22.17
2019-01-02T03:06:39.175Z,22.17
2019-01-02T03:09:10.539Z,22.20
2019-01-02T03:11:40.757Z,22.16
2019-01-02T03:14:10.998Z,22.15
2019-01-02T03:16:41.495Z,22.16
2019-01-02T03:19:12.091Z,22.15
2019-01-02T03:21:42.487Z,22.17
2019-01-02T03:24:13.119Z,22.13
2019-01-02T03:26:43.334Z,22.12
2019-01-02T03:29:13.648Z,22.12
2019-01-02T03:31:44.168Z,22.14
2019-01-02T03:34:14.766Z,22.13
2019-01-02T03:36:45.060Z,22.12
2019-01-02T03:39:15.282Z,22.12
2019-01-02T03:41:45.522Z,22.10
2019-01-02T03:44:16.865Z,22.06
2019-01-02T03:46:47.091Z,22.11
2019-01-02T03:49:17.587Z,22.05
2019-01-02T03:51:47.881Z,22.03
2019-01-02T03:54:18.500Z,22.01
2019-01-02T03:56:48.725Z,22.00
2019-01-02T03:59:19.019Z,22.05
2019-01-02T04:01:49.243Z,22.06
2019-01-02T04:04:19.461Z,22.08
2019-01-02T04:06:49.732Z,22.05
2019-01-02T04:09:20.022Z,22.10
2019-01-02T04:11:50.295Z,22.11
2019-01-02T04:14:20.567Z,22.06
2019-01-02T04:16:50.811Z,22.08
2019-01-02T04:19:21.146Z,22.06
2019-01-02T04:21:51.386Z,22.06
2019-01-02T04:24:21.655Z,22.06
2019-01-02T04:26:51.897Z,22.05
2019-01-02T04:29:22.375Z,22.02
2019-01-02T04:31:52.605Z,22.05
2019-01-02T04:34:22.863Z,22.04
2019-01-02T04:36:53.157Z,22.03
2019-01-02T04:39:23.427Z,22.03
2019-01-02T04:41:53.681Z,22.03
2019-01-02T04:44:23.978Z,21.99
2019-01-02T04:46:55.294Z,22.01
2019-01-02T04:49:25.580Z,22.02
2019-01-02T04:51:55.835Z,22.00
2019-01-02T04:54:26.056Z,21.99
2019-01-02T04:56:56.305Z,21.99
2019-01-02T04:59:26.601Z,21.98
2019-01-02T05:01:56.832Z,21.99
2019-01-02T05:04:27.086Z,21.99
2019-01-02T05:06:57.318Z,21.94
2019-01-02T05:09:27.607Z,21.97
2019-01-02T05:11:57.854Z,21.94
2019-01-02T05:14:28.107Z,21.92
2019-01-02T05:16:59.418Z,21.94
2019-01-02T05:19:29.687Z,21.96
2019-01-02T05:21:59.909Z,21.97
2019-01-02T05:24:30.768Z,21.96
2019-01-02T05:27:01.002Z,21.95
2019-01-02T05:29:31.262Z,21.96
2019-01-02T05:32:01.496Z,21.94
2019-01-02T05:34:31.744Z,21.96
2019-01-02T05:37:01.998Z,21.96
2019-01-02T05:39:32.221Z,21.94
2019-01-02T05:42:02.482Z,21.98
2019-01-02T05:44:32.706Z,22.01
2019-01-02T05:47:02.948Z,21.99
2019-01-02T05:49:33.170Z,21.95
2019-01-02T05:52:03.498Z,22.01
2019-01-02T05:54:33.744Z,21.99
2019-01-02T05:57:03.981Z,21.95
2019-01-02T05:59:34.231Z,21.95
2019-01-02T06:02:05.153Z,21.95
2019-01-02T06:04:35.472Z,21.97
2019-01-02T06:07:05.722Z,21.96
2019-01-02T06:09:35.958Z,21.97
2019-01-02T06:12:06.224Z,21.98
2019-01-02T06:14:36.451Z,22.00
2019-01-02T06:17:06.699Z,22.02
2019-01-02T06:19:36.968Z,22.00
2019-01-02T06:22:07.205Z,22.05
2019-01-02T06:24:37.472Z,22.04
2019-01-02T06:27:07.746Z,22.00
2019-01-02T06:29:38.002Z,21.99
2019-01-02T06:32:08.256Z,22.01
2019-01-02T06:34:38.589Z,22.01
2019-01-02T06:37:09.173Z,21.99
2019-01-02T06:39:39.390Z,22.00
2019-01-02T06:42:09.676Z,22.04
2019-01-02T06:44:39.890Z,22.09
2019-01-02T06:47:10.156Z,22.10
2019-01-02T06:49:40.378Z,22.12
2019-01-02T06:52:10.643Z,22.07
2019-01-02T06:54:40.946Z,22.09
2019-01-02T06:57:11.508Z,22.05
2019-01-02T06:59:41.756Z,22.08
2019-01-02T07:02:11.989Z,22.08
2019-01-02T07:04:42.253Z,22.06
2019-01-02T07:07:12.506Z,22.12
2019-01-02T07:09:42.745Z,22.14
2019-01-02T07:12:13.011Z,22.12
2019-01-02T07:14:43.238Z,22.13
2019-01-02T07:17:13.507Z,22.16
2019-01-02T07:19:43.812Z,22.16
2019-01-02T07:22:14.094Z,22.18
2019-01-02T07:24:44.319Z,22.20
2019-01-02T07:27:14.592Z,22.16
2019-01-02T07:29:44.848Z,22.19
2019-01-02T07:32:15.078Z,22.23
2019-01-02T07:35:21.169Z,22.21
2019-01-02T07:38:19.418Z,22.22
2019-01-02T07:41:34.217Z,22.23
2019-01-02T07:44:41.281Z,22.25
2019-01-02T07:47:57.391Z,22.28
2019-01-02T07:51:30.297Z,22.30
2019-01-02T07:54:56.532Z,22.29
2019-01-02T07:58:06.848Z,22.31
2019-01-02T08:01:05.877Z,22.30
2019-01-02T08:04:16.676Z,22.31
2019-01-02T08:07:24.023Z,22.32
2019-01-02T08:10:44.156Z,22.34
2019-01-02T08:13:50.594Z,22.33
2019-01-02T08:16:59.609Z,22.34
2019-01-02T08:19:58.679Z,22.36
2019-01-02T08:22:57.889Z,22.34
2019-01-02T08:25:50.522Z,22.35
2019-01-02T08:28:52.589Z,22.36
2019-01-02T08:31:46.515Z,22.39
2019-01-02T08:34:51.125Z,22.36
2019-01-02T08:37:47.216Z,22.39
2019-01-02T08:40:59.757Z,22.37
2019-01-02T08:43:54.082Z,22.37
2019-01-02T08:47:23.615Z,22.38
2019-01-02T08:50:36.906Z,22.36
2019-01-02T08:53:36.830Z,22.41
2019-01-02T08:56:50.227Z,22.39
2019-01-02T09:00:19.654Z,22.42
2019-01-02T09:03:16.478Z,22.41
2019-01-02T09:06:52.420Z,22.41
2019-01-02T09:10:00.525Z,22.42
2019-01-02T09:13:00.018Z,22.40
2019-01-02T09:16:04.367Z,22.43
2019-01-02T09:19:06.305Z,22.44
2019-01-02T09:22:16.509Z,22.46
2019-01-02T09:25:21.072Z,22.42
2019-01-02T09:28:17.610Z,22.43
2019-01-02T09:31:27.497Z,22.45
2019-01-02T09:34:48.017Z,22.43
2019-01-02T09:37:52.021Z,22.52
2019-01-02T09:40:44.384Z,22.52
2019-01-02T09:43:42.777Z,22.53
2019-01-02T09:47:21.992Z,22.53
2019-01-02T09:50:42.436Z,22.48
2019-01-02T09:53:38.230Z,22.49
2019-01-02T09:56:57.365Z,22.47
2019-01-02T10:00:17.410Z,22.46
2019-01-02T10:03:19.679Z,22.50
2019-01-02T10:06:17.847Z,22.51
2019-01-02T10:09:10.813Z,22.50
2019-01-02T10:12:37.231Z,22.47
2019-01-02T10:15:43.137Z,22.50
2019-01-02T10:21:27.514Z,22.52
2019-01-02T10:24:47.610Z,22.46
2019-01-02T10:28:14.524Z,22.43
2019-01-02T10:31:33.669Z,22.45
2019-01-02T10:34:49.859Z,22.45
2019-01-02T10:37:32.815Z,22.44
2019-01-02T10:40:42.727Z,22.43
2019-01-02T10:43:45.929Z,22.39
2019-01-02T10:46:55.865Z,22.45
2019-01-02T10:50:01.536Z,22.44
2019-01-02T10:53:19.404Z,22.49
2019-01-02T10:56:21.166Z,22.44
2019-01-02T10:59:29.662Z,22.45
2019-01-02T11:02:22.697Z,22.46
2019-01-02T11:05:22.638Z,22.45
2019-01-02T11:08:26.319Z,22.44
2019-01-02T11:11:48.774Z,22.42
2019-01-02T11:14:57.986Z,22.42
2019-01-02T11:18:21.436Z,22.44
2019-01-02T11:21:35.766Z,22.43
2019-01-02T11:24:48.751Z,22.43
2019-01-02T11:27:45.394Z,22.43
2019-01-02T11:30:30.795Z,22.45
2019-01-02T11:33:45.728Z,22.46
2019-01-02T11:37:00.638Z,22.47
2019-01-02T11:40:07.736Z,22.47
2019-01-02T11:43:40.449Z,22.44
2019-01-02T11:46:10.708Z,22.45
2019-01-02T11:48:40.961Z,22.47
2019-01-02T11:51:11.321Z,22.43
2019-01-02T11:53:41.567Z,22.42
2019-01-02T11:56:11.836Z,22.46
2019-01-02T11:58:42.084Z,22.44
2019-01-02T12:01:12.330Z,22.43
2019-01-02T12:03:42.677Z,22.44
2019-01-02T12:06:12.978Z,22.42
2019-01-02T12:08:43.210Z,22.42
2019-01-02T12:11:13.456Z,22.39
2019-01-02T12:13:43.695Z,22.39
2019-01-02T12:16:13.926Z,22.42
2019-01-02T12:18:44.227Z,22.45
2019-01-02T12:21:14.470Z,22.46
2019-01-02T12:23:45.022Z,22.45
2019-01-02T12:26:15.322Z,22.42
2019-01-02T12:28:45.590Z,22.42
2019-01-02T12:31:15.854Z,22.41
2019-01-02T12:33:46.114Z,22.40
2019-01-02T12:36:16.413Z,22.38
2019-01-02T12:38:46.649Z,22.41
2019-01-02T12:41:16.952Z,22.39
2019-01-02T12:43:47.239Z,22.41
2019-01-02T12:46:17.529Z,22.39
2019-01-02T12:48:47.832Z,22.35
2019-01-02T12:51:19.403Z,22.36
2019-01-02T12:53:49.662Z,22.37
2019-01-02T12:56:20.054Z,22.36
2019-01-02T12:58:50.316Z,22.36
2019-01-02T13:01:56.585Z,22.37
2019-01-02T13:04:54.714Z,22.33
2019-01-02T13:08:04.807Z,22.32
2019-01-02T13:11:01.527Z,22.34
2019-01-02T13:14:21.129Z,22.32
2019-01-02T13:17:27.311Z,22.32
2019-01-02T13:20:21.281Z,22.35
2019-01-02T13:23:23.296Z,22.31
2019-01-02T13:26:18.289Z,22.30
2019-01-02T13:29:44.903Z,22.31
2019-01-02T13:32:43.126Z,22.31
2019-01-02T13:35:49.335Z,22.28
2019-01-02T13:38:49.287Z,22.31
2019-01-02T13:41:47.856Z,22.30
2019-01-02T13:44:57.620Z,22.31
2019-01-02T13:48:04.540Z,22.30
2019-01-02T13:50:43.381Z,22.32
2019-01-02T13:53:14.553Z,22.30
2019-01-02T13:55:44.868Z,22.31
2019-01-02T13:58:15.215Z,22.32
2019-01-02T14:00:45.551Z,22.33
2019-01-02T14:03:16.040Z,22.31
2019-01-02T14:05:50.183Z,22.30
2019-01-02T14:08:21.462Z,22.29
2019-01-02T14:10:51.683Z,22.33
2019-01-02T14:13:22.082Z,22.34
2019-01-02T14:15:52.364Z,22.34
2019-01-02T14:18:22.846Z,22.38
2019-01-02T14:20:53.840Z,22.35
2019-01-02T14:23:24.065Z,22.35
2019-01-02T14:25:54.286Z,22.36
2019-01-02T14:28:24.650Z,22.35
2019-01-02T14:30:55.080Z,22.35
2019-01-02T14:33:26.016Z,22.31
2019-01-02T14:35:56.268Z,22.37
2019-01-02T14:38:26.520Z,22.37
2019-01-02T14:40:56.741Z,22.39
2019-01-02T14:43:26.988Z,22.39
2019-01-02T14:45:57.273Z,22.39
2019-01-02T14:48:27.581Z,22.39
2019-01-02T14:50:57.859Z,22.38
2019-01-02T14:53:28.101Z,22.38
2019-01-02T14:55:58.451Z,22.38
2019-01-02T14:58:28.668Z,22.35
2019-01-02T15:00:58.893Z,22.37
2019-01-02T15:03:29.102Z,22.34
2019-01-02T15:05:59.356Z,22.36
2019-01-02T15:08:29.562Z,22.33
2019-01-02T15:10:59.794Z,22.31
2019-01-02T15:13:30.122Z,22.27
2019-01-02T15:16:00.356Z,22.26
2019-01-02T15:18:30.612Z,22.18
2019-01-02T15:21:00.859Z,22.16
2019-01-02T15:23:31.143Z,22.24
2019-01-02T15:26:01.381Z,22.25
2019-01-02T15:28:31.639Z,22.26
2019-01-02T15:31:01.856Z,22.24
2019-01-02T15:33:32.315Z,22.25
2019-01-02T15:36:02.540Z,22.29
2019-01-02T15:38:32.771Z,22.28
2019-01-02T15:41:03.089Z,22.33
2019-01-02T15:43:33.324Z,22.34
2019-01-02T15:46:03.874Z,22.35
2019-01-02T15:48:34.250Z,22.33
2019-01-02T15:51:05.550Z,22.32
2019-01-02T15:53:35.850Z,22.32
2019-01-02T15:56:06.112Z,22.32
2019-01-02T15:58:36.365Z,22.34
2019-01-02T16:01:06.631Z,22.36
2019-01-02T16:03:36.942Z,22.34
2019-01-02T16:06:07.188Z,22.34
2019-01-02T16:08:37.441Z,22.30
2019-01-02T16:11:07.710Z,22.31
2019-01-02T16:13:38.374Z,22.32
2019-01-02T16:16:08.606Z,22.34
2019-01-02T16:18:38.873Z,22.36
2019-01-02T16:21:09.149Z,22.35
2019-01-02T16:23:41.135Z,22.32
2019-01-02T16:26:11.369Z,22.34
2019-01-02T16:28:41.686Z,22.36
2019-01-02T16:31:11.916Z,22.41
2019-01-02T16:34:07.182Z,22.39
2019-01-02T16:37:14.854Z,22.39
2019-01-02T16:40:07.570Z,22.40
2019-01-02T16:43:06.745Z,22.38
2019-01-02T16:45:39.035Z,22.40
2019-01-02T16:48:09.988Z,22.42
2019-01-02T16:50:41.347Z,22.38
2019-01-02T16:53:12.706Z,22.35
2019-01-02T16:55:43.645Z,22.39
2019-01-02T16:58:15.673Z,22.41
2019-01-02T17:00:46.964Z,22.43
2019-01-02T17:03:19.239Z,22.41
2019-01-02T17:05:50.441Z,22.39
2019-01-02T17:08:21.920Z,22.41
2019-01-02T17:10:53.034Z,22.40
2019-01-02T17:13:24.420Z,22.40
2019-01-02T17:15:55.037Z,22.38
2019-01-02T17:18:27.505Z,22.40
2019-01-02T17:20:59.281Z,22.42
2019-01-02T17:23:30.015Z,22.41
2019-01-02T17:26:01.119Z,22.42
2019-01-02T17:28:32.362Z,22.39
2019-01-02T17:31:03.986Z,22.43
2019-01-02T17:33:35.365Z,22.41
2019-01-02T17:36:06.475Z,22.45
2019-01-02T17:38:37.537Z,22.45
2019-01-02T17:41:08.646Z,22.49
2019-01-02T17:43:40.073Z,22.47
2019-01-02T17:46:11.460Z,22.44
2019-01-02T17:48:42.898Z,22.49
2019-01-02T17:51:13.962Z,22.51
2019-01-02T17:53:44.787Z,22.52
2019-01-02T17:56:16.054Z,22.51
2019-01-02T17:58:46.825Z,22.53
2019-01-02T18:01:17.916Z,22.52
2019-01-02T18:03:48.977Z,22.52
2019-01-02T18:06:20.219Z,22.54
2019-01-02T18:08:51.187Z,22.53
2019-01-02T18:11:22.292Z,22.57
2019-01-02T18:13:53.202Z,22.55
2019-01-02T18:16:24.190Z,22.53
2019-01-02T18:18:55.434Z,22.56
2019-01-02T18:21:27.029Z,22.49
2019-01-02T18:23:58.120Z,22.52
2019-01-02T18:26:29.317Z,22.53
2019-01-02T18:29:00.389Z,22.53
2019-01-02T18:31:31.261Z,22.54
2019-01-02T18:34:02.421Z,22.54
2019-01-02T18:36:33.196Z,22.58
2019-01-02T18:39:05.798Z,22.56
2019-01-02T18:41:37.241Z,22.57
2019-01-02T18:44:08.999Z,22.57
2019-01-02T18:46:41.039Z,22.55
2019-01-02T18:49:12.015Z,22.53
2019-01-02T18:51:43.165Z,22.51
2019-01-02T18:54:14.256Z,22.49
2019-01-02T18:56:45.395Z,22.53
2019-01-02T18:59:24.235Z,22.52
2019-01-02T19:01:55.485Z,22.55
2019-01-02T19:04:26.225Z,22.57
2019-01-02T19:06:57.431Z,22.55
2019-01-02T19:09:28.430Z,22.57
2019-01-02T19:11:59.489Z,22.57
2019-01-02T19:14:30.942Z,22.59
2019-01-02T19:17:02.489Z,22.61
2019-01-02T19:19:33.877Z,22.64
2019-01-02T19:22:05.175Z,22.62
2019-01-02T19:24:36.226Z,22.63
2019-01-02T19:27:07.660Z,22.65
2019-01-02T19:29:38.724Z,22.64
2019-01-02T19:32:10.112Z,22.64
2019-01-02T19:34:41.179Z,22.63
2019-01-02T19:37:12.284Z,22.68
2019-01-02T19:39:43.351Z,22.68
2019-01-02T19:42:14.131Z,22.70
2019-01-02T19:44:45.430Z,22.69
2019-01-02T19:47:16.059Z,22.70
2019-01-02T19:49:46.499Z,22.69
2019-01-02T19:52:16.877Z,22.70
2019-01-02T19:54:47.298Z,22.73
2019-01-02T19:57:17.564Z,22.71
2019-01-02T19:59:48.207Z,22.71
2019-01-02T20:02:18.432Z,22.75
2019-01-02T20:04:48.694Z,22.75
2019-01-02T20:07:20.761Z,22.77
2019-01-02T20:09:51.971Z,22.77
2019-01-02T20:12:22.388Z,22.79
2019-01-02T20:14:53.760Z,22.77
2019-01-02T20:17:24.101Z,22.79
2019-01-02T20:19:54.396Z,22.81
2019-01-02T20:22:24.865Z,22.78
2019-01-02T20:24:55.863Z,22.81
2019-01-02T20:27:26.232Z,22.81
2019-01-02T20:29:56.843Z,22.86
2019-01-02T20:32:27.224Z,22.85
2019-01-02T20:34:57.557Z,22.85
2019-01-02T20:37:27.983Z,22.81
2019-01-02T20:39:58.296Z,22.82
2019-01-02T20:42:28.579Z,22.80
2019-01-02T20:44:59.904Z,22.81
2019-01-02T20:47:30.210Z,22.82
2019-01-02T20:50:00.865Z,22.82
2019-01-02T20:52:31.508Z,22.83
2019-01-02T20:55:01.778Z,22.83
2019-01-02T20:57:32.088Z,22.83
2019-01-02T21:00:02.691Z,22.86
2019-01-02T21:02:33.166Z,22.86
2019-01-02T21:05:03.442Z,22.82
2019-01-02T21:07:33.721Z,22.85
2019-01-02T21:10:05.989Z,22.85
2019-01-02T21:12:39.110Z,22.83
2019-01-02T21:15:10.814Z,22.89
2019-01-02T21:17:42.696Z,22.91
2019-01-02T21:20:13.477Z,22.90
2019-01-02T21:22:43.854Z,22.92
2019-01-02T21:25:14.836Z,22.90
2019-01-02T21:27:49.435Z,22.93
2019-01-02T21:30:21.391Z,22.92
2019-01-02T21:32:52.451Z,22.93
2019-01-02T21:35:24.918Z,22.95
2019-01-02T21:37:55.253Z,22.93
2019-01-02T21:40:25.455Z,22.95
2019-01-02T21:42:56.352Z,22.92
2019-01-02T21:45:27.086Z,22.94
2019-01-02T21:47:57.890Z,22.93
2019-01-02T21:50:28.255Z,22.88
2019-01-02T21:52:58.662Z,22.89
2019-01-02T21:55:29.023Z,22.83
2019-01-02T21:57:59.476Z,22.85
2019-01-02T22:00:29.795Z,22.87
2019-01-02T22:03:00.436Z,22.87
2019-01-02T22:05:30.653Z,22.86
2019-01-02T22:08:00.939Z,22.81
2019-01-02T22:10:31.170Z,22.77
2019-01-02T22:13:06.832Z,22.83
2019-01-02T22:15:37.059Z,22.84
2019-01-02T22:18:09.475Z,22.90
2019-01-02T22:20:41.352Z,22.92
2019-01-02T22:23:11.612Z,22.88
2019-01-02T22:25:41.897Z,22.91
2019-01-02T22:28:12.155Z,22.92
2019-01-02T22:30:42.392Z,22.92
2019-01-02T22:33:12.647Z,22.86
2019-01-02T22:35:43.118Z,22.88
2019-01-02T22:38:13.358Z,22.86
2019-01-02T22:40:44.102Z,22.83
2019-01-02T22:43:14.437Z,22.81
2019-01-02T22:45:44.693Z,22.79
2019-01-02T22:48:15.029Z,22.79
2019-01-02T22:50:45.738Z,22.81
2019-01-02T22:53:15.961Z,22.80
2019-01-02T22:55:46.316Z,22.77
2019-01-02T22:58:16.564Z,22.79
2019-01-02T23:01:05.932Z,22.78
2019-01-02T23:03:57.906Z,22.76
2019-01-02T23:06:45.668Z,22.71
2019-01-02T23:09:33.921Z,22.71
2019-01-02T23:12:22.790Z,22.69
2019-01-02T23:15:28.307Z,22.67
2019-01-02T23:18:15.977Z,22.68
2019-01-02T23:21:13.309Z,22.66
2019-01-02T23:24:01.387Z,22.63
2019-01-02T23:26:49.343Z,22.60
2019-01-02T23:29:37.392Z,22.62
2019-01-02T23:32:25.110Z,22.59
2019-01-02T23:35:23.186Z,22.60
2019-01-02T23:38:15.312Z,22.60
2019-01-02T23:41:10.725Z,22.60
2019-01-02T23:44:02.693Z,22.57
2019-01-02T23:46:50.596Z,22.54
2019-01-02T23:49:39.795Z,22.53
2019-01-02T23:52:24.171Z,22.53
2019-01-02T23:55:16.411Z,22.50
2019-01-02T23:58:05.622Z,22.50
